Time;durP1;ratioP1;P1;durP2;ratioP2;P2;SDS_P1;SDS_P2;PMS_P1;PMS_P2;Temp;Humidity;BMP_temperature;BMP_pressure;BME280_temperature;BME280_humidity;BME280_pressure;Samples;Min_cycle;Max_cycle;Signal;HPM_P1;HPM_P2
2021/03/16 00:00:24;;;;;;;;;;;;;;;1.25;78.74;100103.42;1663296;85;20297;-77
2021/03/16 00:03:09;;;;;;;;;;;;;;;1.23;78.76;100102.97;1664644;85;20316;-76
2021/03/16 00:05:53;;;;;;;;;;;;;;;1.20;78.74;100106.74;1674435;85;20491;-76
2021/03/16 00:08:38;;;;;;;;;;;;;;;1.17;78.77;100105.43;1666359;85;20324;-76
2021/03/16 00:11:22;;;;;;;;;;;;;;;1.15;78.78;100110.50;1670637;85;20320;-76
2021/03/16 00:14:07;;;;;;;;;;;;;;;1.13;78.80;100107.49;1656255;85;20213;-76
2021/03/16 00:16:51;;;;;;;;;;;;;;;1.10;78.79;100105.76;1650620;85;20506;-76
2021/03/16 00:19:36;;;;;;;;;;;;;;;1.08;78.78;100111.66;1659257;85;20287;-76
2021/03/16 00:22:20;;;;;;;;;;;;;;;1.03;78.75;100110.36;1659690;85;20293;-76
2021/03/16 00:25:06;;;;;;;;;;;;;;;0.98;78.77;100115.38;1668893;85;20532;-76
2021/03/16 00:27:50;;;;;;;;;;;;;;;0.95;78.77;100114.48;1676832;85;20295;-76
2021/03/16 00:30:35;;;;;;;;;;;;;;;0.92;78.76;100119.53;1669520;85;20279;-76
2021/03/16 00:33:19;;;;;;;;;;;;;;;0.85;78.63;100119.84;1654795;85;20286;-76
2021/03/16 00:36:04;;;;;;;;;;;;;;;0.82;78.79;100118.95;1666673;85;20288;-76
2021/03/16 00:38:49;;;;;;;;;;;;;;;0.81;78.83;100123.59;1656301;85;20318;-76
2021/03/16 00:41:34;;;;;;;;;;;;;;;0.79;78.86;100129.94;1674918;84;20327;-76
2021/03/16 00:44:18;;;;;;;;;;;;;;;0.77;78.88;100133.28;1674245;85;20296;-76
2021/03/16 00:47:03;;;;;;;;;;;;;;;0.77;78.86;100134.56;1655360;85;20411;-76
2021/03/16 00:49:47;;;;;;;;;;;;;;;0.75;78.82;100133.67;1651611;85;20499;-76
2021/03/16 00:52:31;;;;;;;;;;;;;;;0.75;78.87;100131.13;1655540;85;20292;-76
2021/03/16 00:55:16;;;;;;;;;;;;;;;0.73;78.89;100136.61;1643700;85;20307;-76
2021/03/16 00:58:00;;;;;;;;;;;;;;;0.73;78.92;100143.83;1657236;85;20536;-76
2021/03/16 01:00:45;;;;;;;;;;;;;;;0.72;78.88;100145.08;1659423;85;20335;-76
2021/03/16 01:03:29;;;;;;;;;;;;;;;0.71;78.91;100144.22;1650638;85;20313;-76
2021/03/16 01:06:14;;;;;;;;;;;;;;;0.71;78.94;100145.49;1672783;85;20292;-75
2021/03/16 01:08:59;;;;;;;;;;;;;;;0.69;78.88;100143.34;1661396;85;20344;-76
2021/03/16 01:11:43;;;;;;;;;;;;;;;0.66;78.89;100139.06;1649050;85;20315;-76
2021/03/16 01:14:28;;;;;;;;;;;;;;;0.62;78.82;100141.11;1657192;85;20299;-76
2021/03/16 01:17:12;;;;;;;;;;;;;;;0.61;78.94;100139.81;1627910;85;20583;-76
2021/03/16 01:19:57;;;;;;;;;;;;;;;0.62;79.01;100147.89;1664019;85;20308;-78
2021/03/16 01:22:41;;;;;;;;;;;;;;;0.62;78.98;100142.38;1638087;85;20260;-78
2021/03/16 01:25:25;;;;;;;;;;;;;;;0.60;78.94;100141.92;1663486;85;20635;-78
2021/03/16 01:28:10;;;;;;;;;;;;;;;0.59;79.02;100147.42;1659361;85;20307;-77
2021/03/16 01:30:54;;;;;;;;;;;;;;;0.61;79.03;100141.09;1666988;85;20288;-76
2021/03/16 01:33:39;;;;;;;;;;;;;;;0.62;79.06;100138.98;1644314;85;20321;-76
2021/03/16 01:36:24;;;;;;;;;;;;;;;0.62;79.01;100134.75;1667757;85;20292;-76
2021/03/16 01:39:08;;;;;;;;;;;;;;;0.57;78.95;100133.82;1618991;85;20334;-76
2021/03/16 01:41:52;;;;;;;;;;;;;;;0.54;78.95;100136.73;1650324;85;21232;-76
2021/03/16 01:44:38;;;;;;;;;;;;;;;0.51;78.96;100132.48;1637148;85;20318;-75
2021/03/16 01:47:23;;;;;;;;;;;;;;;0.52;79.13;100133.34;1647953;85;20576;-76
2021/03/16 01:50:10;;;;;;;;;;;;;;;0.53;79.08;100139.69;1644021;85;20337;-76
2021/03/16 01:52:54;;;;;;;;;;;;;;;0.53;79.13;100130.78;1654670;85;20575;-76
2021/03/16 01:55:39;;;;;;;;;;;;;;;0.53;79.05;100135.87;1637436;85;20341;-76
2021/03/16 01:58:24;;;;;;;;;;;;;;;0.49;79.03;100136.68;1651429;85;20324;-75
2021/03/16 02:01:08;;;;;;;;;;;;;;;0.44;78.96;100137.02;1652361;85;20460;-75
2021/03/16 02:03:53;;;;;;;;;;;;;;;0.37;79.12;100140.70;1654824;85;20387;-75
2021/03/16 02:06:59;;;;;;;;;;;;;;;0.39;79.26;100140.31;1664629;85;20256;-75
2021/03/16 02:09:50;;;;;;;;;;;;;;;0.41;79.27;100140.78;1667917;85;20196;-76
2021/03/16 02:12:52;;;;;;;;;;;;;;;0.39;79.19;100141.17;1651844;85;20480;-76
2021/03/16 02:15:38;;;;;;;;;;;;;;;0.40;79.29;100148.38;1665695;85;20546;-76
2021/03/16 02:18:26;;;;;;;;;;;;;;;0.42;79.38;100147.58;1620632;87;20924;-76
2021/03/16 02:21:13;;;;;;;;;;;;;;;0.45;79.32;100149.32;1649008;85;20321;-76
2021/03/16 02:24:03;;;;;;;;;;;;;;;0.45;79.29;100155.27;1664856;85;20364;-76
2021/03/16 02:27:08;;;;;;;;;;;;;;;0.45;79.28;100156.95;1663589;85;20292;-76
2021/03/16 02:29:59;;;;;;;;;;;;;;;0.44;79.23;100153.97;1648494;85;20295;-75
2021/03/16 02:32:45;;;;;;;;;;;;;;;0.42;79.33;100157.75;1672926;85;20311;-76
2021/03/16 02:35:30;;;;;;;;;;;;;;;0.39;79.17;100157.70;1631680;85;20975;-76
2021/03/16 02:38:15;;;;;;;;;;;;;;;0.32;79.20;100161.81;1665280;85;20939;-76
2021/03/16 02:41:01;;;;;;;;;;;;;;;0.31;79.24;100164.33;1632288;86;20587;-76
2021/03/16 02:43:47;;;;;;;;;;;;;;;0.27;79.27;100165.96;1663542;85;20567;-76
2021/03/16 02:46:31;;;;;;;;;;;;;;;0.25;79.33;100162.53;1674907;85;20300;-76
2021/03/16 02:49:17;;;;;;;;;;;;;;;0.24;79.40;100162.09;1671268;84;20296;-76
2021/03/16 02:52:02;;;;;;;;;;;;;;;0.26;79.41;100162.98;1646783;84;20295;-77
2021/03/16 02:54:49;;;;;;;;;;;;;;;0.25;79.37;100164.22;1672694;84;20320;-77
2021/03/16 02:57:34;;;;;;;;;;;;;;;0.25;79.37;100170.58;1666055;84;20332;-77
2021/03/16 03:00:19;;;;;;;;;;;;;;;0.24;79.35;100168.45;1648726;84;20254;-77
2021/03/16 03:03:05;;;;;;;;;;;;;;;0.21;79.21;100175.16;1677126;84;20577;-77
2021/03/16 03:05:52;;;;;;;;;;;;;;;0.14;79.14;100183.50;1677449;84;20365;-76
2021/03/16 03:08:36;;;;;;;;;;;;;;;0.05;79.18;100184.59;1670387;84;20307;-76
2021/03/16 03:11:20;;;;;;;;;;;;;;;0.00;79.24;100185.80;1683238;84;20320;-77
2021/03/16 03:14:06;;;;;;;;;;;;;;;-0.03;79.27;100192.09;1657336;84;20573;-77
2021/03/16 03:16:50;;;;;;;;;;;;;;;-0.10;79.31;100188.98;1680052;84;21165;-76
2021/03/16 03:19:35;;;;;;;;;;;;;;;-0.11;79.41;100197.03;1667192;84;20578;-76
2021/03/16 03:22:38;;;;;;;;;;;;;;;-0.11;79.50;100193.22;1678298;84;20287;-76
2021/03/16 03:25:26;;;;;;;;;;;;;;;-0.08;79.52;100194.55;1668175;84;20279;-76
2021/03/16 03:28:21;;;;;;;;;;;;;;;-0.08;79.37;100200.91;1685430;84;20696;-76
2021/03/16 03:31:06;;;;;;;;;;;;;;;-0.12;79.33;100205.48;1669278;84;20306;-77
2021/03/16 03:33:52;;;;;;;;;;;;;;;-0.14;79.40;100210.94;1654392;84;20307;-77
2021/03/16 03:36:38;;;;;;;;;;;;;;;-0.16;79.37;100217.67;1663614;84;20613;-77
2021/03/16 03:39:25;;;;;;;;;;;;;;;-0.22;79.34;100217.55;1668982;84;20296;-76
2021/03/16 03:42:10;;;;;;;;;;;;;;;-0.24;79.45;100217.92;1638570;86;20302;-76
2021/03/16 03:44:57;;;;;;;;;;;;;;;-0.25;79.47;100216.21;1674304;84;20273;-76
2021/03/16 03:47:41;;;;;;;;;;;;;;;-0.21;79.66;100226.02;1671333;84;20170;-76
2021/03/16 03:50:26;;;;;;;;;;;;;;;-0.18;79.68;100225.67;1661075;85;20270;-76
2021/03/16 03:53:12;;;;;;;;;;;;;;;-0.14;79.68;100231.68;1612616;87;20268;-76
2021/03/16 03:55:56;;;;;;;;;;;;;;;-0.10;79.69;100237.27;1563078;90;20298;-76
2021/03/16 03:58:40;;;;;;;;;;;;;;;-0.07;79.67;100236.06;1669456;85;20292;-76
2021/03/16 04:01:26;;;;;;;;;;;;;;;-0.04;79.69;100242.07;1659431;85;20254;-76
2021/03/16 04:04:11;;;;;;;;;;;;;;;-0.02;79.64;100246.77;1628454;86;20550;-77
2021/03/16 04:06:56;;;;;;;;;;;;;;;0.02;79.70;100242.98;1663002;85;20161;-77
2021/03/16 04:09:40;;;;;;;;;;;;;;;0.07;79.71;100245.22;1667935;85;20480;-77
2021/03/16 04:12:24;;;;;;;;;;;;;;;0.08;79.67;100245.24;1641726;85;20172;-77
2021/03/16 04:15:12;;;;;;;;;;;;;;;0.10;79.67;100244.86;1646090;85;20329;-77
2021/03/16 04:17:56;;;;;;;;;;;;;;;0.14;79.64;100255.95;1654294;85;20570;-77
2021/03/16 04:20:43;;;;;;;;;;;;;;;0.13;79.65;100255.09;1676134;85;20332;-77
2021/03/16 04:23:27;;;;;;;;;;;;;;;0.14;79.61;100263.16;1640751;85;20308;-77
2021/03/16 04:26:12;;;;;;;;;;;;;;;0.13;79.55;100269.08;1663544;85;20300;-77
2021/03/16 04:28:56;;;;;;;;;;;;;;;0.15;79.67;100271.65;1648674;85;20287;-77
2021/03/16 04:31:41;;;;;;;;;;;;;;;0.18;79.75;100275.11;1640092;85;20325;-77
2021/03/16 04:34:25;;;;;;;;;;;;;;;0.21;79.74;100278.13;1663494;85;20293;-77
2021/03/16 04:37:10;;;;;;;;;;;;;;;0.20;79.65;100276.00;1675320;85;20303;-77
2021/03/16 04:39:55;;;;;;;;;;;;;;;0.20;79.71;100282.77;1664661;85;20337;-77
2021/03/16 04:42:39;;;;;;;;;;;;;;;0.21;79.69;100285.34;1664014;85;20456;-77
2021/03/16 04:45:24;;;;;;;;;;;;;;;0.17;79.66;100282.30;1672727;85;20308;-77
2021/03/16 04:48:08;;;;;;;;;;;;;;;0.19;79.74;100286.14;1641252;85;20338;-77
2021/03/16 04:50:53;;;;;;;;;;;;;;;0.19;79.68;100292.49;1664484;85;20331;-77
2021/03/16 04:53:37;;;;;;;;;;;;;;;0.16;79.67;100297.10;1656332;85;20295;-77
2021/03/16 04:56:22;;;;;;;;;;;;;;;0.15;79.68;100302.16;1671171;85;20648;-76
2021/03/16 04:59:07;;;;;;;;;;;;;;;0.16;79.80;100303.45;1674265;85;20319;-76
2021/03/16 05:01:51;;;;;;;;;;;;;;;0.19;79.82;100307.34;1660060;84;20287;-76
2021/03/16 05:04:36;;;;;;;;;;;;;;;0.20;79.80;100314.14;1654215;85;20595;-77
2021/03/16 05:07:20;;;;;;;;;;;;;;;0.24;79.87;100313.78;1663713;85;20312;-77
2021/03/16 05:10:07;;;;;;;;;;;;;;;0.28;79.93;100318.11;1660832;85;20289;-77
2021/03/16 05:12:51;;;;;;;;;;;;;;;0.31;79.96;100317.77;1660836;85;20940;-77
2021/03/16 05:15:35;;;;;;;;;;;;;;;0.35;79.93;100321.23;1653563;85;20297;-77
2021/03/16 05:18:20;;;;;;;;;;;;;;;0.36;79.83;100322.94;1650180;85;20306;-77
2021/03/16 05:21:05;;;;;;;;;;;;;;;0.35;79.89;100323.77;1656852;84;20327;-77
2021/03/16 05:23:49;;;;;;;;;;;;;;;0.39;79.96;100333.17;1667919;84;20659;-76
2021/03/16 05:26:34;;;;;;;;;;;;;;;0.44;79.98;100330.31;1664944;85;20597;-76
2021/03/16 05:29:18;;;;;;;;;;;;;;;0.48;79.98;100335.91;1662991;85;20316;-76
2021/03/16 05:32:03;;;;;;;;;;;;;;;0.51;79.97;100335.11;1663542;84;20334;-77
2021/03/16 05:34:48;;;;;;;;;;;;;;;0.54;79.99;100341.50;1661429;85;20331;-77
2021/03/16 05:37:32;;;;;;;;;;;;;;;0.58;80.02;100349.64;1664573;85;21242;-77
2021/03/16 05:40:17;;;;;;;;;;;;;;;0.60;79.97;100346.30;1666766;85;20320;-76
2021/03/16 05:43:02;;;;;;;;;;;;;;;0.64;79.97;100353.58;1660574;84;20305;-76
2021/03/16 05:45:47;;;;;;;;;;;;;;;0.66;80.04;100354.47;1658133;85;20415;-76
2021/03/16 05:48:31;;;;;;;;;;;;;;;0.71;80.06;100355.83;1664507;85;20319;-77
2021/03/16 05:51:17;;;;;;;;;;;;;;;0.72;80.02;100364.77;1660038;85;20316;-77
2021/03/16 05:54:01;;;;;;;;;;;;;;;0.75;80.04;100361.42;1658183;85;20307;-77
2021/03/16 05:56:46;;;;;;;;;;;;;;;0.77;79.98;100357.22;1663109;85;20706;-77
2021/03/16 05:59:31;;;;;;;;;;;;;;;0.78;80.02;100361.07;1590288;88;20319;-77
2021/03/16 06:02:16;;;;;;;;;;;;;;;0.79;80.02;100364.05;1610145;87;20695;-77
2021/03/16 06:05:00;;;;;;;;;;;;;;;0.80;80.04;100368.31;1594040;88;20600;-77
2021/03/16 06:07:50;;;;;;;;;;;;;;;0.82;80.02;100365.80;1613757;87;20298;-78
2021/03/16 06:10:34;;;;;;;;;;;;;;;0.84;80.02;100364.14;1613023;87;20343;-78
2021/03/16 06:13:19;;;;;;;;;;;;;;;0.84;80.01;100370.52;1608977;87;20346;-77
2021/03/16 06:16:17;;;;;;;;;;;;;;;0.83;79.94;100372.20;1627225;87;20335;-77
2021/03/16 06:19:01;;;;;;;;;;;;;;;0.84;80.02;100380.27;1613927;87;361016;-77
2021/03/16 06:21:49;;;;;;;;;;;;;;;0.88;80.10;100381.20;1619067;87;20220;-77
2021/03/16 06:24:45;;;;;;;;;;;;;;;0.94;80.11;100385.13;1592172;88;20695;-77
2021/03/16 06:27:29;;;;;;;;;;;;;;;0.98;80.12;100389.45;1589427;88;20338;-77
2021/03/16 06:30:18;;;;;;;;;;;;;;;1.01;80.09;100388.23;1620501;87;20329;-78
2021/03/16 06:33:03;;;;;;;;;;;;;;;1.03;80.05;100390.81;1616652;87;20580;-78
2021/03/16 06:35:59;;;;;;;;;;;;;;;1.08;80.16;100393.00;1610695;87;20322;-77
2021/03/16 06:38:44;;;;;;;;;;;;;;;1.14;80.19;100396.52;1605371;87;20294;-77
2021/03/16 06:41:32;;;;;;;;;;;;;;;1.22;80.24;100394.11;1637998;85;20624;-77
2021/03/16 06:44:18;;;;;;;;;;;;;;;1.31;80.22;100397.69;1662921;85;20299;-77
2021/03/16 06:47:03;;;;;;;;;;;;;;;1.40;80.15;100396.98;1661237;85;20450;-77
2021/03/16 06:49:47;;;;;;;;;;;;;;;1.55;80.32;100401.08;1636033;85;20319;-77
2021/03/16 06:52:32;;;;;;;;;;;;;;;1.74;80.35;100403.48;1631915;85;20968;-76
2021/03/16 06:55:17;;;;;;;;;;;;;;;1.86;80.19;100403.69;1632239;85;20291;-77
2021/03/16 06:58:06;;;;;;;;;;;;;;;1.96;80.18;100411.06;1635921;85;20311;-77
2021/03/16 07:00:51;;;;;;;;;;;;;;;2.08;80.33;100412.48;1636092;85;20944;-77
2021/03/16 07:03:36;;;;;;;;;;;;;;;2.21;80.29;100427.14;1660048;85;20168;-77
2021/03/16 07:06:20;;;;;;;;;;;;;;;2.30;80.12;100429.83;1619017;85;20267;-77
2021/03/16 07:09:05;;;;;;;;;;;;;;;2.34;80.09;100437.11;1656829;85;20267;-77
2021/03/16 07:11:56;;;;;;;;;;;;;;;2.40;80.20;100441.03;1655446;85;20260;-77
2021/03/16 07:14:41;;;;;;;;;;;;;;;2.46;80.08;100446.63;1657165;85;20480;-77
2021/03/16 07:17:26;;;;;;;;;;;;;;;2.51;80.26;100452.24;1661425;85;20269;-77
2021/03/16 07:20:11;;;;;;;;;;;;;;;2.58;80.19;100454.05;1657564;85;20456;-78
2021/03/16 07:22:57;;;;;;;;;;;;;;;2.65;80.30;100460.92;1658471;85;20288;-77
2021/03/16 07:25:42;;;;;;;;;;;;;;;2.82;80.43;100456.45;1656056;85;20196;-80
2021/03/16 07:28:27;;;;;;;;;;;;;;;3.02;80.57;100465.22;1658211;85;20288;-77
2021/03/16 07:31:12;;;;;;;;;;;;;;;3.25;80.59;100471.44;1659205;85;20196;-78
2021/03/16 07:34:00;;;;;;;;;;;;;;;3.48;80.60;100472.11;1660378;85;20444;-77
2021/03/16 07:36:46;;;;;;;;;;;;;;;3.65;80.48;100476.94;1657082;85;20172;-77
2021/03/16 07:39:31;;;;;;;;;;;;;;;3.82;80.56;100487.33;1655179;85;20726;-77
2021/03/16 07:42:15;;;;;;;;;;;;;;;4.01;80.54;100493.05;1673791;83;21202;-77
2021/03/16 07:45:00;;;;;;;;;;;;;;;4.03;80.13;100496.90;1657123;85;20215;-77
2021/03/16 07:47:45;;;;;;;;;;;;;;;3.87;79.99;100497.18;1653178;85;20312;-77
2021/03/16 07:50:31;;;;;;;;;;;;;;;3.81;80.12;100497.13;1617367;85;20303;-77
2021/03/16 07:53:26;;;;;;;;;;;;;;;3.82;80.33;100505.23;1652543;85;20358;-77
2021/03/16 07:56:13;;;;;;;;;;;;;;;3.89;80.39;100504.45;1658084;85;20603;-77
2021/03/16 07:58:57;;;;;;;;;;;;;;;3.88;80.26;100509.13;1648922;85;20306;-77
2021/03/16 08:01:48;;;;;;;;;;;;;;;3.84;80.28;100521.03;1653693;85;20330;-77
2021/03/16 08:04:38;;;;;;;;;;;;;;;3.79;80.13;100525.66;1652889;85;20307;-77
2021/03/16 08:07:30;;;;;;;;;;;;;;;3.74;80.32;100526.03;1652812;85;20331;-78
2021/03/16 08:10:30;;;;;;;;;;;;;;;3.75;80.35;100524.77;1657015;85;20315;-78
2021/03/16 08:13:17;;;;;;;;;;;;;;;3.74;80.36;100530.73;1653978;85;20295;-77
2021/03/16 08:16:12;;;;;;;;;;;;;;;3.75;80.46;100528.61;1656142;85;20326;-76
2021/03/16 08:19:12;;;;;;;;;;;;;;;3.71;80.23;100535.81;1652947;85;20390;-77
2021/03/16 08:21:58;;;;;;;;;;;;;;;3.67;80.32;100539.17;1656579;85;20646;-77
2021/03/16 08:24:43;;;;;;;;;;;;;;;3.67;80.35;100539.17;1645632;85;20646;-77
2021/03/16 08:27:28;;;;;;;;;;;;;;;3.65;80.41;100539.58;1653613;85;20538;-77
2021/03/16 08:30:14;;;;;;;;;;;;;;;3.68;80.48;100538.75;1649987;85;20339;-77
2021/03/16 08:32:58;;;;;;;;;;;;;;;3.68;80.38;100538.34;1653969;85;20319;-76
2021/03/16 08:35:53;;;;;;;;;;;;;;;3.68;80.56;100540.89;1649639;85;20354;-78
2021/03/16 08:38:37;;;;;;;;;;;;;;;3.79;80.60;100543.14;1634916;85;20598;-77
2021/03/16 08:41:22;;;;;;;;;;;;;;;3.89;80.65;100536.42;1653862;85;20524;-77
2021/03/16 08:44:06;;;;;;;;;;;;;;;4.03;80.72;100541.25;1608826;85;20331;-77
2021/03/16 08:46:51;;;;;;;;;;;;;;;4.12;80.47;100548.16;1650452;85;20320;-77
2021/03/16 08:49:40;;;;;;;;;;;;;;;4.15;80.55;100549.46;1634900;85;20311;-76
2021/03/16 08:52:29;;;;;;;;;;;;;;;4.33;80.81;100543.19;1657147;85;20323;-77
2021/03/16 08:55:23;;;;;;;;;;;;;;;4.53;80.71;100548.05;1627759;85;20320;-77
2021/03/16 08:58:09;;;;;;;;;;;;;;;4.76;80.75;100547.32;1658470;85;20419;-77
2021/03/16 09:00:54;;;;;;;;;;;;;;;4.99;80.85;100554.73;1659653;85;20667;-77
2021/03/16 09:03:38;;;;;;;;;;;;;;;5.16;80.62;100555.68;1613723;87;21003;-77
2021/03/16 09:06:23;;;;;;;;;;;;;;;5.18;80.29;100555.27;1615746;87;20633;-77
2021/03/16 09:09:08;;;;;;;;;;;;;;;5.23;80.59;100559.95;1583557;88;20412;-77
2021/03/16 09:11:55;;;;;;;;;;;;;;;5.35;80.64;100551.47;1587373;88;20412;-78
2021/03/16 09:14:40;;;;;;;;;;;;;;;5.44;80.56;100558.34;1586912;88;20315;-77
2021/03/16 09:17:25;;;;;;;;;;;;;;;5.52;80.51;100568.20;1612621;87;20285;-77
2021/03/16 09:20:13;;;;;;;;;;;;;;;5.53;80.30;100564.78;1588390;88;20314;-77
2021/03/16 09:23:06;;;;;;;;;;;;;;;5.53;80.43;100568.20;1613652;87;20765;-77
2021/03/16 09:25:51;;;;;;;;;;;;;;;5.57;80.38;100567.38;1618021;87;20303;-77
2021/03/16 09:28:35;;;;;;;;;;;;;;;5.60;80.32;100571.66;1633022;85;20307;-78
2021/03/16 09:31:24;;;;;;;;;;;;;;;5.68;80.60;100572.54;1614695;87;20307;-77
2021/03/16 09:34:09;;;;;;;;;;;;;;;5.80;80.37;100573.83;1614122;87;20594;-77
2021/03/16 09:37:00;;;;;;;;;;;;;;;5.87;80.41;100572.99;1595454;87;20336;-77
2021/03/16 09:39:52;;;;;;;;;;;;;;;5.97;80.55;100577.33;1613930;87;20308;-76
2021/03/16 09:42:46;;;;;;;;;;;;;;;6.12;80.54;100574.36;1595485;87;20588;-76
2021/03/16 09:45:32;;;;;;;;;;;;;;;6.25;80.50;100577.34;1620710;87;20303;-76
2021/03/16 09:48:18;;;;;;;;;;;;;;;6.30;80.16;100575.20;1659257;85;20287;-76
2021/03/16 09:51:18;;;;;;;;;;;;;;;6.37;80.33;100578.63;1655553;84;20565;-76
2021/03/16 09:54:03;;;;;;;;;;;;;;;6.45;80.25;100583.34;1663265;84;20294;-76
2021/03/16 09:56:52;;;;;;;;;;;;;;;6.48;80.12;100585.06;1604952;86;20315;-76
2021/03/16 09:59:39;;;;;;;;;;;;;;;6.57;80.20;100579.93;1640853;84;20347;-76
2021/03/16 10:02:35;;;;;;;;;;;;;;;6.63;80.20;100589.77;1664881;84;21238;-76
2021/03/16 10:05:22;;;;;;;;;;;;;;;6.66;80.02;100590.20;1660701;84;20286;-77
2021/03/16 10:08:06;;;;;;;;;;;;;;;6.67;80.15;100588.48;1662687;84;20530;-77
2021/03/16 10:10:51;;;;;;;;;;;;;;;6.72;80.14;100590.20;1642159;84;20616;-77
2021/03/16 10:13:39;;;;;;;;;;;;;;;6.75;79.94;100593.20;1660561;84;20583;-78
2021/03/16 10:16:27;;;;;;;;;;;;;;;6.77;80.02;100594.88;1642165;84;21241;-78
2021/03/16 10:19:14;;;;;;;;;;;;;;;6.89;80.14;100596.15;1663327;84;20281;-76
2021/03/16 10:21:59;;;;;;;;;;;;;;;7.09;80.32;100599.98;1663673;84;20789;-76
2021/03/16 10:24:44;;;;;;;;;;;;;;;7.24;80.15;100603.80;1642505;84;20628;-76
2021/03/16 10:27:31;;;;;;;;;;;;;;;7.31;79.94;100603.33;1639115;84;20606;-76
2021/03/16 10:30:16;;;;;;;;;;;;;;;7.28;79.67;100609.33;1659295;84;20318;-76
2021/03/16 10:33:01;;;;;;;;;;;;;;;7.20;79.46;100608.95;1642420;85;20426;-76
2021/03/16 10:35:46;;;;;;;;;;;;;;;7.01;79.39;100611.98;1636959;85;20413;-76
2021/03/16 10:38:30;;;;;;;;;;;;;;;6.94;79.56;100620.14;1646031;84;20324;-77
2021/03/16 10:41:19;;;;;;;;;;;;;;;6.92;79.70;100615.86;1659258;84;20298;-76
2021/03/16 10:44:04;;;;;;;;;;;;;;;6.90;79.71;100622.70;1662130;84;20406;-76
2021/03/16 10:46:49;;;;;;;;;;;;;;;6.89;79.67;100623.14;1660837;84;20348;-76
2021/03/16 10:49:35;;;;;;;;;;;;;;;6.84;79.61;100624.00;1664855;84;20698;-76
2021/03/16 10:52:19;;;;;;;;;;;;;;;6.75;79.56;100630.45;1659355;84;20361;-76
2021/03/16 10:55:04;;;;;;;;;;;;;;;6.65;79.59;100630.88;1662136;84;20314;-76
2021/03/16 10:57:49;;;;;;;;;;;;;;;6.62;79.78;100629.17;1640865;85;20323;-76
2021/03/16 11:00:34;;;;;;;;;;;;;;;6.66;79.82;100634.31;1663345;84;20312;-76
2021/03/16 11:03:19;;;;;;;;;;;;;;;6.77;79.99;100629.56;1639276;84;20319;-76
2021/03/16 11:06:04;;;;;;;;;;;;;;;6.94;80.08;100632.98;1661569;84;20323;-76
2021/03/16 11:08:49;;;;;;;;;;;;;;;7.11;79.93;100626.55;1662538;84;20286;-76
2021/03/16 11:11:33;;;;;;;;;;;;;;;7.30;80.02;100634.62;1659748;84;20293;-77
2021/03/16 11:14:18;;;;;;;;;;;;;;;7.46;79.82;100634.15;1663316;84;20303;-77
2021/03/16 11:17:03;;;;;;;;;;;;;;;7.62;79.94;100632.38;1661057;84;20299;-77
2021/03/16 11:19:47;;;;;;;;;;;;;;;7.76;79.66;100633.19;1663163;84;20298;-76
2021/03/16 11:22:32;;;;;;;;;;;;;;;7.84;79.52;100637.84;1661382;84;20300;-76
2021/03/16 11:25:16;;;;;;;;;;;;;;;7.83;78.95;100636.13;1662282;84;20315;-76
2021/03/16 11:28:01;;;;;;;;;;;;;;;7.78;79.23;100637.90;1657948;84;20318;-77
2021/03/16 11:30:45;;;;;;;;;;;;;;;7.82;79.10;100638.70;1662706;84;20403;-77
2021/03/16 11:33:30;;;;;;;;;;;;;;;7.86;79.03;100628.83;1637509;85;20675;-76
2021/03/16 11:36:14;;;;;;;;;;;;;;;7.86;79.05;100645.12;1663255;84;20360;-76
2021/03/16 11:38:59;;;;;;;;;;;;;;;7.76;78.79;100649.92;1661424;84;20292;-77
2021/03/16 11:41:43;;;;;;;;;;;;;;;7.70;78.68;100650.37;1638732;84;20294;-77
2021/03/16 11:44:28;;;;;;;;;;;;;;;7.48;78.62;100647.01;1659938;85;20936;-77
2021/03/16 11:47:16;;;;;;;;;;;;;;;7.43;78.84;100650.87;1638170;84;20291;-78
2021/03/16 11:50:00;;;;;;;;;;;;;;;7.49;78.93;100642.29;1663200;84;20264;-77
2021/03/16 11:52:44;;;;;;;;;;;;;;;7.55;79.10;100643.56;1661117;84;20299;-77
2021/03/16 11:55:29;;;;;;;;;;;;;;;7.74;79.22;100647.78;1664376;84;20164;-77
2021/03/16 11:58:14;;;;;;;;;;;;;;;7.91;79.08;100644.67;1663144;84;20248;-78
2021/03/16 12:00:59;;;;;;;;;;;;;;;8.03;78.82;100643.77;1661080;84;20741;-76
2021/03/16 12:03:44;;;;;;;;;;;;;;;8.12;78.66;100646.29;1625279;84;20303;-76
2021/03/16 12:06:29;;;;;;;;;;;;;;;8.11;78.17;100648.44;1650026;84;20680;-77
2021/03/16 12:09:13;;;;;;;;;;;;;;;7.99;78.17;100644.64;1661587;84;20295;-78
2021/03/16 12:11:58;;;;;;;;;;;;;;;7.92;78.35;100646.38;1664786;84;20307;-77
2021/03/16 12:14:43;;;;;;;;;;;;;;;7.94;78.34;100644.66;1637535;84;20328;-77
2021/03/16 12:17:27;;;;;;;;;;;;;;;7.94;78.24;100643.80;1670417;84;20358;-77
2021/03/16 12:20:13;;;;;;;;;;;;;;;7.97;78.38;100639.93;1659804;84;20298;-77
2021/03/16 12:22:57;;;;;;;;;;;;;;;8.04;78.37;100643.33;1661892;84;20484;-79
2021/03/16 12:25:42;;;;;;;;;;;;;;;8.12;78.33;100645.00;1661794;84;20567;-77
2021/03/16 12:28:27;;;;;;;;;;;;;;;8.17;78.20;100644.98;1646523;84;20290;-77
2021/03/16 12:31:11;;;;;;;;;;;;;;;8.14;77.92;100643.70;1642915;84;20291;-77
2021/03/16 12:33:57;;;;;;;;;;;;;;;8.11;77.69;100654.02;1662943;84;20315;-78
2021/03/16 12:36:42;;;;;;;;;;;;;;;8.00;77.60;100649.36;1661528;84;20324;-78
2021/03/16 12:39:26;;;;;;;;;;;;;;;7.88;77.75;100650.27;1662913;84;20394;-77
2021/03/16 12:42:12;;;;;;;;;;;;;;;7.96;78.00;100651.09;1679496;83;20335;-77
2021/03/16 12:48:37;;;;;;;;;;;;;;;8.32;78.04;100652.59;1665272;84;20587;-77
2021/03/16 12:51:22;;;;;;;;;;;;;;;8.45;77.62;100654.25;1637073;85;20324;-77
2021/03/16 12:54:07;;;;;;;;;;;;;;;8.52;77.67;100651.20;1639112;85;20260;-77
2021/03/16 12:56:52;;;;;;;;;;;;;;;8.52;77.59;100644.76;1619574;87;20211;-78
2021/03/16 12:59:36;;;;;;;;;;;;;;;8.58;77.62;100651.16;1620518;87;20261;-76
2021/03/16 13:02:21;;;;;;;;;;;;;;;8.65;77.54;100655.41;1637275;85;20434;-75
2021/03/16 13:05:05;;;;;;;;;;;;;;;8.55;77.24;100656.34;1585008;88;20212;-78
2021/03/16 13:07:50;;;;;;;;;;;;;;;8.50;77.42;100659.38;1614683;87;20166;-79
2021/03/16 13:10:34;;;;;;;;;;;;;;;8.52;77.46;100656.36;1596707;88;20284;-79
2021/03/16 13:13:19;;;;;;;;;;;;;;;8.59;77.60;100660.17;1620661;87;20494;-77
2021/03/16 13:16:03;;;;;;;;;;;;;;;8.58;77.47;100652.02;1589156;88;20281;-77
2021/03/16 13:18:48;;;;;;;;;;;;;;;8.52;77.01;100663.66;1661809;85;20180;-77
2021/03/16 13:21:32;;;;;;;;;;;;;;;8.41;77.08;100665.88;1602332;87;20392;-77
2021/03/16 13:24:17;;;;;;;;;;;;;;;8.42;77.23;100668.88;1616052;87;20270;-77
2021/03/16 13:27:01;;;;;;;;;;;;;;;8.42;77.21;100664.58;1594348;88;20286;-77
2021/03/16 13:29:46;;;;;;;;;;;;;;;8.44;77.18;100674.45;1612508;87;20321;-78
2021/03/16 13:32:30;;;;;;;;;;;;;;;8.42;76.99;100672.31;1608015;87;20442;-77
2021/03/16 13:35:15;;;;;;;;;;;;;;;8.42;76.90;100667.59;1592010;88;20300;-78
2021/03/16 13:37:59;;;;;;;;;;;;;;;8.39;77.07;100673.61;1616986;87;20410;-78
2021/03/16 13:40:44;;;;;;;;;;;;;;;8.38;76.86;100674.48;1623983;85;20315;-78
2021/03/16 13:43:29;;;;;;;;;;;;;;;8.33;76.84;100682.67;1595082;88;20292;-78
2021/03/16 13:46:13;;;;;;;;;;;;;;;8.23;76.69;100686.16;1623037;87;20317;-76
2021/03/16 13:48:58;;;;;;;;;;;;;;;8.05;76.64;100691.39;1614172;87;20301;-76
2021/03/16 13:51:43;;;;;;;;;;;;;;;7.85;76.57;100685.03;1624627;87;20310;-76
2021/03/16 13:54:27;;;;;;;;;;;;;;;7.71;76.79;100690.26;1615990;87;20311;-76
2021/03/16 13:57:12;;;;;;;;;;;;;;;7.63;76.78;100698.43;1607833;87;20610;-76
2021/03/16 13:59:57;;;;;;;;;;;;;;;7.54;76.88;100699.30;1615912;86;20352;-76
2021/03/16 14:02:41;;;;;;;;;;;;;;;7.49;76.88;100689.45;1614124;87;20329;-76
2021/03/16 14:05:26;;;;;;;;;;;;;;;7.42;76.92;100699.77;1630993;87;20336;-76
2021/03/16 14:08:10;;;;;;;;;;;;;;;7.37;76.88;100685.63;1583191;88;20314;-76
2021/03/16 14:10:55;;;;;;;;;;;;;;;7.27;76.88;100697.67;1630482;87;20647;-76
2021/03/16 14:13:39;;;;;;;;;;;;;;;7.14;76.66;100702.39;1590051;88;20627;-75
2021/03/16 14:16:24;;;;;;;;;;;;;;;7.03;76.98;100707.11;1665752;85;20304;-76
2021/03/16 14:19:09;;;;;;;;;;;;;;;6.94;76.78;100713.10;1664328;85;20674;-76
2021/03/16 14:21:54;;;;;;;;;;;;;;;6.84;76.83;100712.23;1665024;85;20544;-76
2021/03/16 14:24:38;;;;;;;;;;;;;;;6.76;76.96;100711.83;1649562;85;20626;-76